createdAt,value
2018-12-08T00:01:01.544Z,-1.82
2018-12-08T00:03:31.098Z,-1.65
2018-12-08T00:06:00.865Z,-1.73
2018-12-08T00:08:30.797Z,-1.70
2018-12-08T00:11:01.227Z,-1.81
2018-12-08T00:13:30.875Z,-1.83
2018-12-08T00:16:00.776Z,-1.77
2018-12-08T00:18:30.674Z,-1.87
2018-12-08T00:21:00.945Z,-1.86
2018-12-08T00:23:30.839Z,-1.83
2018-12-08T00:26:01.209Z,-1.83
2018-12-08T00:28:30.833Z,-1.83
2018-12-08T00:31:11.376Z,-1.95
2018-12-08T00:33:41.203Z,-1.86
2018-12-08T00:36:11.065Z,-1.81
2018-12-08T00:38:40.815Z,-1.83
2018-12-08T00:41:10.476Z,-1.83
2018-12-08T00:43:40.331Z,-1.83
2018-12-08T00:46:09.999Z,-1.81
2018-12-08T00:48:39.800Z,-1.79
2018-12-08T00:51:09.486Z,-1.86
2018-12-08T00:53:39.643Z,-1.96
2018-12-08T00:56:09.343Z,-1.85
2018-12-08T00:58:39.209Z,-1.81
2018-12-08T01:01:09.054Z,-1.77
2018-12-08T01:03:38.911Z,-1.80
2018-12-08T01:06:08.625Z,-1.80
2018-12-08T01:08:39.368Z,-1.89
2018-12-08T01:11:09.160Z,-1.84
2018-12-08T01:13:38.898Z,-2.01
2018-12-08T01:16:08.650Z,-1.79
2018-12-08T01:18:38.564Z,-1.83
2018-12-08T01:21:08.321Z,-1.82
2018-12-08T01:23:38.338Z,-1.82
2018-12-08T01:26:07.939Z,-1.82
2018-12-08T01:28:37.611Z,-1.83
2018-12-08T01:31:08.253Z,-1.83
2018-12-08T01:33:38.009Z,-1.87
2018-12-08T01:36:08.619Z,-1.84
2018-12-08T01:38:39.427Z,-2.00
2018-12-08T01:41:09.125Z,-2.07
2018-12-08T01:43:38.902Z,-1.90
2018-12-08T01:46:08.863Z,-2.13
2018-12-08T01:48:38.685Z,-2.10
2018-12-08T01:51:08.819Z,-2.17
2018-12-08T01:53:38.743Z,-2.05
2018-12-08T01:56:08.921Z,-2.12
2018-12-08T01:58:39.146Z,-2.11
2018-12-08T02:01:09.106Z,-2.28
2018-12-08T02:03:38.986Z,-2.13
2018-12-08T02:06:08.814Z,-1.98
2018-12-08T02:08:38.522Z,-2.16
2018-12-08T02:11:08.547Z,-2.12
2018-12-08T02:13:38.450Z,-2.25
2018-12-08T02:16:08.084Z,-2.30
2018-12-08T02:18:38.162Z,-2.33
2018-12-08T02:21:07.871Z,-2.35
2018-12-08T02:23:37.801Z,-2.58
2018-12-08T02:26:07.721Z,-2.55
2018-12-08T02:28:37.721Z,-2.60
2018-12-08T02:31:07.545Z,-2.60
2018-12-08T02:33:37.418Z,-2.65
2018-12-08T02:36:07.492Z,-2.68
2018-12-08T02:38:37.198Z,-2.85
2018-12-08T02:41:06.908Z,-2.71
2018-12-08T02:43:37.207Z,-2.67
2018-12-08T02:46:07.029Z,-2.72
2018-12-08T02:48:37.984Z,-2.75
2018-12-08T02:51:07.923Z,-2.61
2018-12-08T02:53:38.159Z,-2.47
2018-12-08T02:56:07.852Z,-2.39
2018-12-08T02:58:38.021Z,-2.31
2018-12-08T03:01:07.954Z,-2.14
2018-12-08T03:03:38.050Z,-2.07
2018-12-08T03:06:08.582Z,-1.97
2018-12-08T03:08:38.316Z,-1.97
2018-12-08T03:11:08.580Z,-1.90
2018-12-08T03:13:38.426Z,-1.73
2018-12-08T03:16:08.537Z,-1.71
2018-12-08T03:18:38.219Z,-1.70
2018-12-08T03:21:08.253Z,-1.55
2018-12-08T03:23:38.001Z,-1.44
2018-12-08T03:26:07.588Z,-1.40
2018-12-08T03:28:37.285Z,-1.52
2018-12-08T03:31:07.324Z,-1.46
2018-12-08T03:33:37.137Z,-1.59
2018-12-08T03:36:06.899Z,-1.71
2018-12-08T03:38:36.778Z,-1.77
2018-12-08T03:41:06.533Z,-1.65
2018-12-08T03:43:36.459Z,-1.64
2018-12-08T03:46:06.369Z,-1.65
2018-12-08T03:48:35.977Z,-1.53
2018-12-08T03:51:05.966Z,-1.48
2018-12-08T03:53:35.709Z,-1.50
2018-12-08T03:56:05.494Z,-1.56
2018-12-08T03:58:35.123Z,-1.45
2018-12-08T04:01:04.830Z,-1.46
2018-12-08T04:03:34.747Z,-1.60
2018-12-08T04:06:04.577Z,-1.56
2018-12-08T04:08:34.550Z,-1.59
2018-12-08T04:11:04.454Z,-1.67
2018-12-08T04:13:34.554Z,-1.62
2018-12-08T04:16:04.412Z,-1.62
2018-12-08T04:18:34.268Z,-1.70
2018-12-08T04:21:04.022Z,-1.40
2018-12-08T04:23:33.881Z,-1.46
2018-12-08T04:26:03.645Z,-1.46
2018-12-08T04:28:33.297Z,-1.55
2018-12-08T04:31:02.966Z,-1.42
2018-12-08T04:33:32.586Z,-1.35
2018-12-08T04:36:02.337Z,-1.27
2018-12-08T04:38:31.956Z,-1.36
2018-12-08T04:41:01.963Z,-1.50
2018-12-08T04:43:31.854Z,-1.60
2018-12-08T04:46:02.239Z,-1.51
2018-12-08T04:48:32.414Z,-1.75
2018-12-08T04:51:03.003Z,-1.69
2018-12-08T04:53:32.618Z,-1.70
2018-12-08T04:56:02.485Z,-1.74
2018-12-08T04:58:32.444Z,-1.72
2018-12-08T05:01:02.023Z,-1.77
2018-12-08T05:03:31.859Z,-1.82
2018-12-08T05:06:02.062Z,-1.88
2018-12-08T05:08:31.936Z,-1.79
2018-12-08T05:11:01.865Z,-1.77
2018-12-08T05:13:31.590Z,-1.75
2018-12-08T05:16:01.142Z,-1.72
2018-12-08T05:18:31.190Z,-1.70
2018-12-08T05:21:01.032Z,-1.58
2018-12-08T05:23:31.611Z,-1.47
2018-12-08T05:26:01.635Z,-1.51
2018-12-08T05:28:31.333Z,-1.61
2018-12-08T05:31:01.089Z,-1.76
2018-12-08T05:33:31.099Z,-1.81
2018-12-08T05:36:00.799Z,-1.72
2018-12-08T05:38:30.447Z,-1.80
2018-12-08T05:41:00.587Z,-1.79
2018-12-08T05:43:30.298Z,-1.82
2018-12-08T05:46:00.216Z,-1.69
2018-12-08T05:48:30.075Z,-1.60
2018-12-08T05:50:59.739Z,-1.65
2018-12-08T05:53:29.631Z,-1.68
2018-12-08T05:55:59.542Z,-1.73
2018-12-08T05:58:29.218Z,-1.67
2018-12-08T06:00:59.119Z,-1.59
2018-12-08T06:03:29.311Z,-1.68
2018-12-08T06:05:58.819Z,-1.69
2018-12-08T06:08:28.999Z,-1.46
2018-12-08T06:10:58.633Z,-1.33
2018-12-08T06:13:28.553Z,-1.20
2018-12-08T06:15:58.454Z,-0.72
2018-12-08T06:18:28.487Z,-0.28
2018-12-08T06:20:58.915Z,0.03
2018-12-08T06:23:29.040Z,0.12
2018-12-08T06:26:00.327Z,-0.02
2018-12-08T06:28:32.972Z,-0.23
2018-12-08T06:31:02.731Z,-0.30
2018-12-08T06:33:32.477Z,-0.26
2018-12-08T06:36:02.052Z,-0.26
2018-12-08T06:38:31.702Z,-0.22
2018-12-08T06:41:01.476Z,-0.34
2018-12-08T06:43:31.373Z,-0.23
2018-12-08T06:46:01.104Z,-0.24
2018-12-08T06:48:30.783Z,-0.15
2018-12-08T06:51:00.554Z,-0.13
2018-12-08T06:53:30.106Z,-0.06
2018-12-08T06:56:00.267Z,-0.24
2018-12-08T06:58:30.070Z,0.28
2018-12-08T07:01:00.279Z,0.51
2018-12-08T07:03:30.037Z,0.41
2018-12-08T07:05:59.889Z,0.88
2018-12-08T07:08:30.710Z,1.34
2018-12-08T07:11:00.578Z,1.16
2018-12-08T07:13:30.224Z,1.37
2018-12-08T07:16:00.255Z,1.55
2018-12-08T07:18:30.014Z,1.51
2018-12-08T07:21:00.068Z,1.41
2018-12-08T07:23:31.257Z,1.66
2018-12-08T07:26:01.232Z,1.51
2018-12-08T07:28:30.795Z,1.61
2018-12-08T07:31:00.411Z,1.60
2018-12-08T07:33:31.169Z,1.65
2018-12-08T07:36:01.085Z,2.03
2018-12-08T07:38:31.478Z,2.01
2018-12-08T07:41:01.182Z,2.27
2018-12-08T07:43:31.298Z,2.44
2018-12-08T07:46:01.062Z,3.10
2018-12-08T07:48:30.718Z,3.64
2018-12-08T07:51:00.337Z,3.72
2018-12-08T07:53:30.430Z,3.78
2018-12-08T07:55:59.986Z,3.45
2018-12-08T07:58:30.499Z,3.93
2018-12-08T08:01:00.125Z,3.66
2018-12-08T08:03:29.825Z,3.67
2018-12-08T08:05:59.408Z,3.70
2018-12-08T08:08:29.399Z,4.01
2018-12-08T08:10:59.266Z,4.30
2018-12-08T08:13:28.950Z,4.28
2018-12-08T08:15:58.823Z,3.84
2018-12-08T08:18:28.546Z,3.68
2018-12-08T08:20:58.137Z,3.49
2018-12-08T08:23:28.182Z,3.30
2018-12-08T08:25:57.746Z,2.89
2018-12-08T08:28:27.514Z,2.97
2018-12-08T08:30:57.252Z,2.69
2018-12-08T08:33:27.083Z,2.76
2018-12-08T08:35:56.815Z,2.94
2018-12-08T08:38:26.474Z,3.02
2018-12-08T08:40:56.433Z,2.55
2018-12-08T08:43:25.978Z,2.52
2018-12-08T08:45:55.829Z,2.90
2018-12-08T08:48:25.679Z,2.71
2018-12-08T08:50:55.666Z,3.01
2018-12-08T08:53:27.498Z,3.12
2018-12-08T08:55:57.554Z,2.94
2018-12-08T08:58:27.050Z,2.84
2018-12-08T09:00:56.873Z,2.89
2018-12-08T09:03:27.174Z,2.30
2018-12-08T09:05:57.006Z,2.55
2018-12-08T09:08:26.609Z,2.48
2018-12-08T09:10:56.276Z,2.43
2018-12-08T09:13:25.886Z,2.97
2018-12-08T09:15:55.633Z,2.54
2018-12-08T09:18:25.228Z,2.93
2018-12-08T09:20:55.065Z,3.02
2018-12-08T09:23:24.765Z,2.96
2018-12-08T09:25:54.418Z,3.09
2018-12-08T09:28:24.242Z,3.05
2018-12-08T09:30:54.409Z,2.94
2018-12-08T09:36:15.764Z,2.44
2018-12-08T09:38:45.417Z,2.36
2018-12-08T09:41:15.278Z,2.79
2018-12-08T09:43:44.923Z,3.13
2018-12-08T09:46:14.637Z,3.33
2018-12-08T09:48:44.179Z,3.57
2018-12-08T09:51:14.039Z,3.66
2018-12-08T09:53:44.054Z,3.95
2018-12-08T09:56:14.689Z,5.04
2018-12-08T09:58:44.327Z,5.72
2018-12-08T10:01:14.250Z,5.45
2018-12-08T10:03:44.052Z,4.84
2018-12-08T10:06:13.983Z,4.49
2018-12-08T10:08:43.887Z,4.23
2018-12-08T10:11:13.615Z,4.04
2018-12-08T10:13:43.633Z,4.01
2018-12-08T10:16:13.490Z,4.02
2018-12-08T10:18:43.458Z,4.50
2018-12-08T10:21:13.283Z,5.91
2018-12-08T10:23:42.859Z,5.70
2018-12-08T10:26:12.916Z,5.32
2018-12-08T10:28:42.814Z,4.90
2018-12-08T10:31:12.529Z,4.89
2018-12-08T10:33:42.106Z,4.82
2018-12-08T10:36:11.902Z,5.32
2018-12-08T10:38:41.806Z,5.01
2018-12-08T10:41:11.657Z,4.71
2018-12-08T10:43:41.711Z,4.73
2018-12-08T10:46:11.229Z,5.12
2018-12-08T10:48:40.926Z,5.77
2018-12-08T10:51:10.509Z,6.07
2018-12-08T10:53:40.466Z,5.62
2018-12-08T10:56:10.174Z,5.35
2018-12-08T10:58:39.886Z,5.45
2018-12-08T11:01:15.010Z,5.43
2018-12-08T11:03:50.458Z,5.17
2018-12-08T11:06:20.418Z,5.35
2018-12-08T11:08:50.286Z,5.88
2018-12-08T11:11:20.169Z,6.36
2018-12-08T11:13:49.906Z,6.77
2018-12-08T11:16:19.918Z,6.72
2018-12-08T11:18:49.938Z,6.84
2018-12-08T11:21:19.816Z,6.93
2018-12-08T11:23:49.576Z,6.89
2018-12-08T11:26:19.321Z,7.34
2018-12-08T11:28:49.294Z,7.17
2018-12-08T11:31:18.830Z,6.76
2018-12-08T11:33:48.498Z,6.90
2018-12-08T11:36:18.908Z,6.48
2018-12-08T11:38:48.839Z,6.35
2018-12-08T11:41:18.863Z,6.34
2018-12-08T11:43:48.574Z,6.14
2018-12-08T11:46:18.275Z,6.17
2018-12-08T11:48:48.011Z,6.07
2018-12-08T11:51:18.059Z,5.96
2018-12-08T11:53:47.699Z,5.78
2018-12-08T11:56:17.452Z,5.58
2018-12-08T11:58:47.124Z,5.48
2018-12-08T12:01:16.963Z,5.44
2018-12-08T12:03:46.614Z,5.51
2018-12-08T12:06:16.556Z,5.48
2018-12-08T12:08:46.515Z,5.36
2018-12-08T12:11:16.412Z,5.43
2018-12-08T12:13:46.133Z,5.34
2018-12-08T12:16:16.605Z,5.25
2018-12-08T12:18:46.262Z,5.47
2018-12-08T12:21:15.823Z,5.44
2018-12-08T12:23:45.334Z,5.49
2018-12-08T12:26:15.032Z,5.50
2018-12-08T12:28:44.619Z,5.34
2018-12-08T12:31:14.598Z,5.29
2018-12-08T12:33:44.286Z,4.91
2018-12-08T12:36:13.823Z,4.85
2018-12-08T12:38:43.836Z,4.71
2018-12-08T12:41:13.644Z,4.53
2018-12-08T12:43:43.259Z,4.47
2018-12-08T12:46:13.054Z,4.41
2018-12-08T12:48:42.868Z,4.46
2018-12-08T12:51:12.683Z,4.33
2018-12-08T12:53:42.547Z,4.36
2018-12-08T12:56:12.496Z,4.46
2018-12-08T12:58:42.232Z,4.45
2018-12-08T13:01:12.129Z,4.45
2018-12-08T13:03:42.031Z,4.36
2018-12-08T13:06:11.749Z,4.53
2018-12-08T13:08:41.559Z,4.49
2018-12-08T13:11:11.638Z,4.60
2018-12-08T13:13:41.225Z,4.57
2018-12-08T13:16:11.091Z,4.65
2018-12-08T13:18:40.959Z,4.76
2018-12-08T13:21:11.334Z,4.83
2018-12-08T13:23:41.868Z,5.13
2018-12-08T13:26:11.598Z,5.12
2018-12-08T13:28:41.678Z,5.17
2018-12-08T13:31:11.573Z,5.15
2018-12-08T13:33:41.497Z,5.10
2018-12-08T13:36:12.169Z,5.11
2018-12-08T13:38:41.920Z,5.11
2018-12-08T13:41:11.468Z,5.06
2018-12-08T13:43:42.892Z,5.00
2018-12-08T13:46:12.587Z,4.96
2018-12-08T13:48:42.514Z,4.97
2018-12-08T13:51:12.491Z,5.00
2018-12-08T13:53:42.157Z,4.87
2018-12-08T13:56:12.216Z,5.10
2018-12-08T13:58:41.897Z,4.91
2018-12-08T14:01:12.005Z,5.08
2018-12-08T14:03:41.789Z,5.26
2018-12-08T14:06:11.522Z,5.16
2018-12-08T14:08:41.547Z,5.25
2018-12-08T14:11:11.252Z,5.13
2018-12-08T14:13:41.717Z,5.06
2018-12-08T14:16:11.420Z,5.07
2018-12-08T14:18:41.246Z,5.13
2018-12-08T14:21:11.094Z,5.14
2018-12-08T14:23:40.835Z,5.05
2018-12-08T14:26:10.542Z,4.96
2018-12-08T14:28:40.575Z,4.65
2018-12-08T14:31:10.242Z,4.48
2018-12-08T14:33:40.168Z,4.16
2018-12-08T14:36:09.958Z,4.12
2018-12-08T14:38:39.708Z,4.08
2018-12-08T14:41:09.360Z,4.23
2018-12-08T14:43:39.187Z,4.31
2018-12-08T14:46:09.136Z,4.23
2018-12-08T14:48:38.763Z,4.21
2018-12-08T14:51:08.719Z,4.14
2018-12-08T14:53:39.354Z,4.19
2018-12-08T14:56:08.959Z,3.95
2018-12-08T14:58:38.629Z,4.32
2018-12-08T15:01:08.383Z,3.98
2018-12-08T15:03:38.545Z,4.16
2018-12-08T15:06:08.203Z,4.10
2018-12-08T15:08:37.770Z,3.99
2018-12-08T15:11:07.671Z,3.77
2018-12-08T15:13:37.382Z,3.49
2018-12-08T15:16:07.089Z,3.44
2018-12-08T15:18:37.075Z,3.20
2018-12-08T15:21:06.869Z,3.20
2018-12-08T15:23:36.615Z,3.35
2018-12-08T15:26:06.245Z,3.17
2018-12-08T15:28:36.204Z,3.13
2018-12-08T15:31:06.010Z,3.01
2018-12-08T15:33:36.333Z,2.87
2018-12-08T15:36:06.101Z,2.99
2018-12-08T15:38:35.823Z,2.84
2018-12-08T15:41:06.025Z,2.57
2018-12-08T15:43:35.687Z,2.43
2018-12-08T15:46:05.648Z,2.67
2018-12-08T15:48:35.243Z,2.62
2018-12-08T15:51:04.964Z,2.56
2018-12-08T15:53:34.724Z,2.61
2018-12-08T15:56:04.640Z,2.44
2018-12-08T15:58:34.383Z,2.35
2018-12-08T16:01:04.366Z,2.58
2018-12-08T16:03:34.194Z,2.50
2018-12-08T16:06:03.889Z,2.49
2018-12-08T16:08:33.822Z,2.41
2018-12-08T16:11:03.535Z,2.32
2018-12-08T16:13:33.444Z,2.20
2018-12-08T16:16:03.585Z,2.16
2018-12-08T16:18:33.250Z,2.19
2018-12-08T16:21:04.712Z,2.13
2018-12-08T16:23:34.266Z,2.08
2018-12-08T16:26:03.960Z,2.03
2018-12-08T16:28:33.864Z,2.13
2018-12-08T16:31:03.602Z,2.07
2018-12-08T16:33:33.404Z,1.95
2018-12-08T16:36:03.494Z,1.91
2018-12-08T16:38:34.353Z,1.91
2018-12-08T16:41:04.460Z,1.96
2018-12-08T16:43:34.209Z,1.98
2018-12-08T16:46:04.025Z,2.00
2018-12-08T16:48:33.987Z,2.03
2018-12-08T16:51:03.875Z,2.11
2018-12-08T16:53:33.938Z,2.08
2018-12-08T16:56:03.539Z,2.07
2018-12-08T16:58:33.389Z,2.01
2018-12-08T17:01:03.487Z,2.02
2018-12-08T17:03:33.152Z,2.16
2018-12-08T17:06:03.014Z,2.24
2018-12-08T17:08:32.967Z,2.12
2018-12-08T17:11:02.577Z,2.05
2018-12-08T17:13:32.794Z,2.05
2018-12-08T17:16:02.743Z,2.14
2018-12-08T17:18:32.518Z,2.18
2018-12-08T17:21:02.238Z,2.27
2018-12-08T17:23:32.445Z,2.42
2018-12-08T17:26:02.371Z,2.44
2018-12-08T17:28:32.213Z,2.48
2018-12-08T17:31:02.422Z,2.63
2018-12-08T17:33:32.145Z,2.78
2018-12-08T17:36:01.920Z,2.73
2018-12-08T17:38:31.754Z,2.83
2018-12-08T17:41:01.636Z,2.92
2018-12-08T17:43:32.525Z,2.87
2018-12-08T17:46:02.186Z,2.90
2018-12-08T17:48:31.738Z,2.92
2018-12-08T17:51:01.619Z,3.00
2018-12-08T17:53:31.547Z,2.97
2018-12-08T17:56:01.193Z,3.02
2018-12-08T17:58:30.885Z,2.94
2018-12-08T18:01:00.864Z,3.04
2018-12-08T18:03:31.036Z,3.03
2018-12-08T18:06:00.893Z,3.08
2018-12-08T18:08:30.641Z,2.98
2018-12-08T18:11:00.307Z,3.10
2018-12-08T18:13:30.104Z,3.20
2018-12-08T18:16:00.020Z,3.16
2018-12-08T18:18:30.057Z,3.11
2018-12-08T18:21:00.113Z,3.08
2018-12-08T18:23:29.846Z,3.09
2018-12-08T18:26:00.037Z,3.12
2018-12-08T18:28:29.694Z,3.13
2018-12-08T18:30:59.346Z,3.16
2018-12-08T18:33:29.290Z,3.13
2018-12-08T18:35:59.079Z,3.16
2018-12-08T18:38:28.908Z,3.19
2018-12-08T18:40:58.887Z,3.25
2018-12-08T18:43:28.569Z,3.27
2018-12-08T18:45:58.451Z,3.16
2018-12-08T18:48:28.291Z,3.43
2018-12-08T18:50:57.854Z,3.54
2018-12-08T18:53:27.541Z,3.55
2018-12-08T18:55:57.642Z,3.49
2018-12-08T18:58:27.478Z,3.61
2018-12-08T19:00:57.442Z,3.56
2018-12-08T19:03:27.207Z,3.55
2018-12-08T19:05:56.902Z,3.51
2018-12-08T19:08:26.917Z,3.38
2018-12-08T19:10:56.794Z,3.40
2018-12-08T19:13:26.814Z,3.32
2018-12-08T19:15:57.535Z,3.20
2018-12-08T19:18:27.205Z,3.39
2018-12-08T19:20:56.932Z,3.34
2018-12-08T19:23:27.286Z,3.37
2018-12-08T19:25:57.226Z,3.46
2018-12-08T19:28:27.112Z,3.49
2018-12-08T19:30:58.340Z,3.63
2018-12-08T19:33:28.108Z,3.67
2018-12-08T19:35:57.792Z,3.54
2018-12-08T19:38:28.160Z,3.52
2018-12-08T19:40:58.062Z,3.60
2018-12-08T19:43:28.158Z,3.60
2018-12-08T19:45:57.951Z,3.46
2018-12-08T19:48:28.046Z,3.50
2018-12-08T19:50:57.765Z,3.37
2018-12-08T19:53:27.938Z,3.41
2018-12-08T19:55:58.205Z,3.42
2018-12-08T19:58:27.981Z,3.54
2018-12-08T20:00:57.673Z,3.55
2018-12-08T20:03:27.274Z,3.32
2018-12-08T20:05:57.335Z,3.32
2018-12-08T20:08:27.077Z,3.29
2018-12-08T20:10:57.361Z,3.32
2018-12-08T20:13:26.998Z,3.32
2018-12-08T20:15:56.875Z,3.32
2018-12-08T20:18:26.622Z,3.47
2018-12-08T20:20:56.514Z,3.49
2018-12-08T20:23:26.223Z,3.35
2018-12-08T20:25:56.310Z,3.29
2018-12-08T20:28:26.372Z,3.35
2018-12-08T20:30:56.116Z,3.40
2018-12-08T20:33:25.978Z,3.32
2018-12-08T20:35:55.828Z,3.27
2018-12-08T20:38:25.569Z,3.32
2018-12-08T20:40:55.534Z,3.18
2018-12-08T20:43:25.399Z,3.15
2018-12-08T20:45:57.110Z,3.25
2018-12-08T20:48:26.810Z,3.38
2018-12-08T20:50:56.777Z,3.31
2018-12-08T20:53:26.637Z,3.29
2018-12-08T20:55:56.232Z,3.36
2018-12-08T20:58:26.289Z,3.34
2018-12-08T21:00:56.094Z,3.40
2018-12-08T21:03:25.712Z,3.43
2018-12-08T21:05:55.618Z,3.51
2018-12-08T21:08:25.657Z,3.48
2018-12-08T21:10:55.338Z,3.49
2018-12-08T21:13:25.557Z,3.46
2018-12-08T21:15:55.166Z,3.56
2018-12-08T21:18:24.814Z,3.60
2018-12-08T21:20:54.647Z,3.56
2018-12-08T21:23:25.468Z,3.61
2018-12-08T21:25:55.378Z,3.68
2018-12-08T21:28:26.763Z,3.60
2018-12-08T21:30:56.538Z,3.62
2018-12-08T21:33:26.491Z,3.48
2018-12-08T21:35:56.486Z,3.24
2018-12-08T21:38:26.289Z,2.95
2018-12-08T21:40:56.028Z,2.89
2018-12-08T21:43:25.615Z,2.78
2018-12-08T21:45:55.639Z,2.66
2018-12-08T21:48:25.478Z,2.59
2018-12-08T21:50:55.600Z,2.66
2018-12-08T21:53:25.263Z,2.54
2018-12-08T21:55:56.018Z,2.57
2018-12-08T21:58:25.838Z,2.42
2018-12-08T22:00:55.753Z,2.20
2018-12-08T22:03:25.381Z,2.22
2018-12-08T22:05:55.192Z,1.99
2018-12-08T22:08:25.942Z,2.00
2018-12-08T22:10:56.026Z,1.99
2018-12-08T22:13:25.824Z,2.03
2018-12-08T22:15:55.574Z,2.02
2018-12-08T22:18:25.332Z,2.04
2018-12-08T22:20:55.096Z,1.91
2018-12-08T22:23:25.131Z,1.97
2018-12-08T22:25:54.930Z,2.14
2018-12-08T22:28:24.808Z,2.10
2018-12-08T22:30:54.632Z,2.09
2018-12-08T22:33:24.874Z,2.23
2018-12-08T22:35:54.740Z,2.34
2018-12-08T22:38:24.429Z,2.35
2018-12-08T22:40:54.470Z,2.36
2018-12-08T22:43:24.242Z,2.62
2018-12-08T22:46:57.270Z,2.31
2018-12-08T22:49:26.908Z,2.40
2018-12-08T22:51:56.877Z,2.32
2018-12-08T22:54:26.691Z,2.37
2018-12-08T22:56:56.231Z,2.47
2018-12-08T22:59:26.269Z,2.51
2018-12-08T23:01:56.120Z,2.59
2018-12-08T23:04:25.666Z,2.56
2018-12-08T23:07:05.927Z,2.62
2018-12-08T23:09:35.730Z,2.71
2018-12-08T23:12:05.377Z,2.74
2018-12-08T23:14:35.147Z,2.66
2018-12-08T23:17:05.986Z,2.72
2018-12-08T23:19:35.697Z,2.70
2018-12-08T23:22:05.792Z,2.79
2018-12-08T23:24:35.662Z,2.77
2018-12-08T23:27:05.268Z,2.63
2018-12-08T23:29:35.133Z,2.63
2018-12-08T23:32:05.006Z,2.70
2018-12-08T23:34:34.800Z,2.66
2018-12-08T23:37:04.901Z,2.74
2018-12-08T23:39:38.865Z,2.44
2018-12-08T23:42:06.843Z,2.57
2018-12-08T23:44:36.447Z,1.78
2018-12-08T23:47:06.484Z,2.72
2018-12-08T23:49:36.390Z,2.63
2018-12-08T23:52:06.190Z,2.25
2018-12-08T23:54:36.104Z,2.49
2018-12-08T23:57:06.150Z,2.55
2018-12-08T23:59:36.113Z,2.50
